createdAt,value
2018-03-14T00:02:02.402Z,66.53
2018-03-14T00:04:30.771Z,65.66
2018-03-14T00:06:59.118Z,65.27
2018-03-14T00:09:27.656Z,65.30
2018-03-14T00:11:56.202Z,64.51
2018-03-14T00:14:24.564Z,64.52
2018-03-14T00:16:53.303Z,64.63
2018-03-14T00:19:21.654Z,64.37
2018-03-14T00:21:50.163Z,64.08
2018-03-14T00:24:18.491Z,64.12
2018-03-14T00:26:47.008Z,63.67
2018-03-14T00:29:15.397Z,63.37
2018-03-14T00:31:43.877Z,62.87
2018-03-14T00:34:12.225Z,62.95
2018-03-14T00:36:40.755Z,63.02
2018-03-14T00:39:09.084Z,62.94
2018-03-14T00:41:37.648Z,63.05
2018-03-14T00:44:06.161Z,63.22
2018-03-14T00:46:34.697Z,63.04
2018-03-14T00:49:03.225Z,62.77
2018-03-14T00:51:31.576Z,62.77
2018-03-14T00:54:00.103Z,62.59
2018-03-14T00:56:28.444Z,62.69
2018-03-14T00:58:56.972Z,62.41
2018-03-14T01:01:25.302Z,62.58
2018-03-14T01:03:53.640Z,62.32
2018-03-14T01:06:21.979Z,62.04
2018-03-14T01:08:50.313Z,62.16
2018-03-14T01:11:18.878Z,62.46
2018-03-14T01:13:47.401Z,62.42
2018-03-14T01:16:15.935Z,62.36
2018-03-14T01:18:44.293Z,62.44
2018-03-14T01:21:12.628Z,62.06
2018-03-14T01:23:40.987Z,62.17
2018-03-14T01:26:09.521Z,61.96
2018-03-14T01:28:37.842Z,61.87
2018-03-14T01:31:06.380Z,61.74
2018-03-14T01:33:34.948Z,61.78
2018-03-14T01:36:03.503Z,61.86
2018-03-14T01:38:31.842Z,62.05
2018-03-14T01:41:00.354Z,61.70
2018-03-14T01:43:28.719Z,61.76
2018-03-14T01:45:57.098Z,61.51
2018-03-14T01:48:25.493Z,61.72
2018-03-14T01:50:53.861Z,61.51
2018-03-14T01:53:28.684Z,61.41
2018-03-14T01:55:57.001Z,61.09
2018-03-14T01:58:25.324Z,61.50
2018-03-14T02:00:53.909Z,61.34
2018-03-14T02:03:22.430Z,61.58
2018-03-14T02:05:50.960Z,61.85
2018-03-14T02:08:19.290Z,61.75
2018-03-14T02:10:47.826Z,61.74
2018-03-14T02:13:16.377Z,61.85
2018-03-14T02:15:44.733Z,61.75
2018-03-14T02:18:13.259Z,61.83
2018-03-14T02:20:41.806Z,61.32
2018-03-14T02:23:10.324Z,61.04
2018-03-14T02:25:38.683Z,60.75
2018-03-14T02:28:07.204Z,60.21
2018-03-14T02:30:35.748Z,60.47
2018-03-14T02:33:04.292Z,60.05
2018-03-14T02:35:32.813Z,60.28
2018-03-14T02:38:01.187Z,60.57
2018-03-14T02:40:29.526Z,60.16
2018-03-14T02:42:57.867Z,59.90
2018-03-14T02:45:26.201Z,59.83
2018-03-14T02:47:54.523Z,59.90
2018-03-14T02:50:22.892Z,60.26
2018-03-14T02:52:51.237Z,59.99
2018-03-14T02:55:19.571Z,60.16
2018-03-14T02:57:47.925Z,60.43
2018-03-14T03:00:16.289Z,62.37
2018-03-14T03:02:44.611Z,61.11
2018-03-14T03:05:12.970Z,60.77
2018-03-14T03:07:41.307Z,64.75
2018-03-14T03:10:09.614Z,65.75
2018-03-14T03:12:38.532Z,67.16
2018-03-14T03:15:06.876Z,68.10
2018-03-14T03:17:35.194Z,68.95
2018-03-14T03:20:03.514Z,69.48
2018-03-14T03:22:31.826Z,70.19
2018-03-14T03:25:00.142Z,70.46
2018-03-14T03:27:28.443Z,70.48
2018-03-14T03:29:56.760Z,70.95
2018-03-14T03:32:25.102Z,70.73
2018-03-14T03:34:53.441Z,70.67
2018-03-14T03:37:21.793Z,70.82
2018-03-14T03:39:50.115Z,70.29
2018-03-14T03:42:18.438Z,70.14
2018-03-14T03:44:46.799Z,70.20
2018-03-14T03:47:15.167Z,69.82
2018-03-14T03:49:43.516Z,69.92
2018-03-14T03:52:11.833Z,69.92
2018-03-14T03:54:40.154Z,69.81
2018-03-14T03:57:08.457Z,69.81
2018-03-14T03:59:36.809Z,69.98
2018-03-14T04:02:05.170Z,68.93
2018-03-14T04:04:33.502Z,68.99
2018-03-14T04:07:01.863Z,68.11
2018-03-14T04:09:30.172Z,67.84
2018-03-14T04:11:58.513Z,67.02
2018-03-14T04:14:26.844Z,66.84
2018-03-14T04:16:55.181Z,67.21
2018-03-14T04:19:23.596Z,66.65
2018-03-14T04:21:51.932Z,66.71
2018-03-14T04:24:20.244Z,66.82
2018-03-14T04:26:48.599Z,66.33
2018-03-14T04:29:16.993Z,66.77
2018-03-14T04:31:45.331Z,66.14
2018-03-14T04:34:13.651Z,66.24
2018-03-14T04:36:42.003Z,65.90
2018-03-14T04:39:10.348Z,65.76
2018-03-14T04:41:38.665Z,66.10
2018-03-14T04:44:06.965Z,65.64
2018-03-14T04:46:35.310Z,65.78
2018-03-14T04:49:03.635Z,65.55
2018-03-14T04:51:31.954Z,65.69
2018-03-14T04:54:00.278Z,65.50
2018-03-14T04:56:28.668Z,65.62
2018-03-14T04:58:57.045Z,65.42
2018-03-14T05:01:25.369Z,65.40
2018-03-14T05:03:53.710Z,65.46
2018-03-14T05:06:22.051Z,65.15
2018-03-14T05:08:50.224Z,65.15
2018-03-14T05:11:18.630Z,65.20
2018-03-14T05:13:47.168Z,65.05
2018-03-14T05:16:15.517Z,64.13
2018-03-14T05:18:43.844Z,62.96
2018-03-14T05:21:12.176Z,62.29
2018-03-14T05:23:40.524Z,61.98
2018-03-14T05:26:08.875Z,61.78
2018-03-14T05:28:37.275Z,61.66
2018-03-14T05:31:05.997Z,61.32
2018-03-14T05:33:34.148Z,61.40
2018-03-14T05:36:02.520Z,61.25
2018-03-14T05:38:30.826Z,61.04
2018-03-14T05:40:59.137Z,61.08
2018-03-14T05:43:27.257Z,61.21
2018-03-14T05:45:55.598Z,61.10
2018-03-14T05:48:23.913Z,60.96
2018-03-14T05:50:52.424Z,61.08
2018-03-14T05:53:20.801Z,61.21
2018-03-14T05:55:49.284Z,60.90
2018-03-14T05:58:17.725Z,60.75
2018-03-14T06:00:46.093Z,60.68
2018-03-14T06:03:14.403Z,60.88
2018-03-14T06:05:42.717Z,60.66
2018-03-14T06:08:11.037Z,60.74
2018-03-14T06:10:39.374Z,60.49
2018-03-14T06:13:07.746Z,60.51
2018-03-14T06:15:36.078Z,60.18
2018-03-14T06:20:37.950Z,59.83
2018-03-14T06:23:06.275Z,59.57
2018-03-14T06:25:34.617Z,59.55
2018-03-14T06:28:02.952Z,59.37
2018-03-14T06:30:31.265Z,58.82
2018-03-14T06:32:59.584Z,58.30
2018-03-14T06:35:27.984Z,57.93
2018-03-14T06:37:56.318Z,57.52
2018-03-14T06:40:24.654Z,57.57
2018-03-14T06:42:53.000Z,57.02
2018-03-14T06:45:21.331Z,56.44
2018-03-14T06:47:49.638Z,56.22
2018-03-14T06:50:17.967Z,56.48
2018-03-14T06:53:06.336Z,56.78
2018-03-14T06:55:34.443Z,57.17
2018-03-14T06:58:02.774Z,57.45
2018-03-14T07:00:42.447Z,57.82
2018-03-14T07:03:21.990Z,57.72
2018-03-14T07:06:01.723Z,58.05
2018-03-14T07:08:30.075Z,58.45
2018-03-14T07:10:58.416Z,58.80
2018-03-14T07:13:26.959Z,59.09
2018-03-14T07:15:55.336Z,59.06
2018-03-14T07:18:23.652Z,59.12
2018-03-14T07:20:51.980Z,58.93
2018-03-14T07:23:20.323Z,58.69
2018-03-14T07:25:48.654Z,59.05
2018-03-14T07:28:16.975Z,58.93
2018-03-14T07:30:45.299Z,58.92
2018-03-14T07:33:13.641Z,58.83
2018-03-14T07:35:42.005Z,58.36
2018-03-14T07:38:10.341Z,58.14
2018-03-14T07:40:38.647Z,58.10
2018-03-14T07:43:06.980Z,58.02
2018-03-14T07:45:35.318Z,58.38
2018-03-14T07:48:03.669Z,57.75
2018-03-14T07:50:32.003Z,57.27
2018-03-14T07:53:00.356Z,57.22
2018-03-14T07:55:28.677Z,56.74
2018-03-14T07:57:57.006Z,56.49
2018-03-14T08:00:25.372Z,56.09
2018-03-14T08:02:53.712Z,55.92
2018-03-14T08:05:22.039Z,55.96
2018-03-14T08:07:50.360Z,55.89
2018-03-14T08:10:18.677Z,56.05
2018-03-14T08:12:47.032Z,55.78
2018-03-14T08:15:15.382Z,54.98
2018-03-14T08:17:43.747Z,54.82
2018-03-14T08:20:12.253Z,54.66
2018-03-14T08:22:40.564Z,54.33
2018-03-14T08:25:09.850Z,55.54
2018-03-14T08:27:38.173Z,55.56
2018-03-14T08:30:06.518Z,54.47
2018-03-14T08:32:34.821Z,54.03
2018-03-14T08:35:03.145Z,53.08
2018-03-14T08:37:31.525Z,53.58
2018-03-14T08:39:59.865Z,52.67
2018-03-14T08:42:28.201Z,52.67
2018-03-14T08:44:56.400Z,54.13
2018-03-14T08:47:24.721Z,56.44
2018-03-14T08:49:53.047Z,56.75
2018-03-14T08:52:21.358Z,55.22
2018-03-14T08:54:49.712Z,57.65
2018-03-14T08:57:18.035Z,59.18
2018-03-14T08:59:46.351Z,60.19
2018-03-14T09:02:14.661Z,59.39
2018-03-14T09:04:42.997Z,59.47
2018-03-14T09:07:11.314Z,59.64
2018-03-14T09:09:39.646Z,59.96
2018-03-14T09:12:08.009Z,60.03
2018-03-14T09:14:36.368Z,59.79
2018-03-14T09:17:04.709Z,59.83
2018-03-14T09:19:33.050Z,59.33
2018-03-14T09:22:13.810Z,59.12
2018-03-14T09:24:42.156Z,58.04
2018-03-14T09:27:10.481Z,58.12
2018-03-14T09:29:38.812Z,58.34
2018-03-14T09:32:07.152Z,57.89
2018-03-14T09:34:35.488Z,57.39
2018-03-14T09:37:03.811Z,57.14
2018-03-14T09:39:32.152Z,56.90
2018-03-14T09:42:00.493Z,56.89
2018-03-14T09:44:28.821Z,56.87
2018-03-14T09:46:57.121Z,56.98
2018-03-14T09:49:25.448Z,57.04
2018-03-14T09:51:53.783Z,57.32
2018-03-14T09:54:22.093Z,56.62
2018-03-14T09:56:50.549Z,55.86
2018-03-14T09:59:24.950Z,55.44
2018-03-14T10:01:53.262Z,56.15
2018-03-14T10:04:21.597Z,56.67
2018-03-14T10:06:50.028Z,56.50
2018-03-14T10:09:18.517Z,55.74
2018-03-14T10:11:46.845Z,55.42
2018-03-14T10:14:15.173Z,55.96
2018-03-14T10:16:43.488Z,55.50
2018-03-14T10:19:11.865Z,55.92
2018-03-14T10:21:40.380Z,55.96
2018-03-14T10:24:08.701Z,55.60
2018-03-14T10:26:37.042Z,54.86
2018-03-14T10:29:05.450Z,54.54
2018-03-14T10:31:33.808Z,53.03
2018-03-14T10:34:02.133Z,53.91
2018-03-14T10:36:30.492Z,53.78
2018-03-14T10:38:59.132Z,53.44
2018-03-14T10:41:27.506Z,53.50
2018-03-14T10:43:55.931Z,52.75
2018-03-14T10:46:24.258Z,52.94
2018-03-14T10:48:52.627Z,52.58
2018-03-14T10:51:20.960Z,52.10
2018-03-14T10:53:49.274Z,52.23
2018-03-14T10:56:17.587Z,50.14
2018-03-14T10:58:45.973Z,49.80
2018-03-14T11:01:14.273Z,49.32
2018-03-14T11:03:44.322Z,49.78
2018-03-14T11:06:12.689Z,50.43
2018-03-14T11:08:41.204Z,50.65
2018-03-14T11:11:09.539Z,51.41
2018-03-14T11:13:37.848Z,50.59
2018-03-14T11:16:06.168Z,48.93
2018-03-14T11:18:34.570Z,49.13
2018-03-14T11:21:02.879Z,49.01
2018-03-14T11:23:31.188Z,48.55
2018-03-14T11:25:59.490Z,47.56
2018-03-14T11:28:27.817Z,47.73
2018-03-14T11:30:56.132Z,46.49
2018-03-14T11:33:24.655Z,45.38
2018-03-14T11:35:52.974Z,44.85
2018-03-14T11:38:21.325Z,44.87
2018-03-14T11:40:49.669Z,45.21
2018-03-14T11:43:18.014Z,45.19
2018-03-14T11:45:46.357Z,44.88
2018-03-14T11:48:14.700Z,45.45
2018-03-14T11:50:43.049Z,45.51
2018-03-14T11:53:11.371Z,44.83
2018-03-14T11:55:39.708Z,43.02
2018-03-14T11:58:08.060Z,42.65
2018-03-14T12:00:36.387Z,43.38
2018-03-14T12:03:04.747Z,42.99
2018-03-14T12:05:33.123Z,42.81
2018-03-14T12:08:01.466Z,43.22
2018-03-14T12:10:29.775Z,42.65
2018-03-14T12:12:58.099Z,43.12
2018-03-14T12:15:26.451Z,42.18
2018-03-14T12:17:54.782Z,41.27
2018-03-14T12:20:23.097Z,40.67
2018-03-14T12:22:51.436Z,40.56
2018-03-14T12:25:19.751Z,40.97
2018-03-14T12:27:48.064Z,39.84
2018-03-14T12:30:16.422Z,41.25
2018-03-14T12:32:44.745Z,41.62
2018-03-14T12:35:13.084Z,41.77
2018-03-14T12:37:41.421Z,42.70
2018-03-14T12:40:09.740Z,43.05
2018-03-14T12:42:38.112Z,43.65
2018-03-14T12:45:06.610Z,42.62
2018-03-14T12:47:34.931Z,42.48
2018-03-14T12:50:03.253Z,41.07
2018-03-14T12:52:31.562Z,39.12
2018-03-14T12:54:59.912Z,38.78
2018-03-14T12:57:28.235Z,39.81
2018-03-14T12:59:56.580Z,40.30
2018-03-14T13:02:24.963Z,41.57
2018-03-14T13:04:53.270Z,40.59
2018-03-14T13:07:21.651Z,41.76
2018-03-14T13:09:50.022Z,41.05
2018-03-14T13:12:18.358Z,40.96
2018-03-14T13:14:46.669Z,41.12
2018-03-14T13:17:14.984Z,41.48
2018-03-14T13:19:43.305Z,41.64
2018-03-14T13:22:11.633Z,41.67
2018-03-14T13:24:39.997Z,41.87
2018-03-14T13:27:08.503Z,42.33
2018-03-14T13:29:38.530Z,42.99
2018-03-14T13:32:06.878Z,43.22
2018-03-14T13:34:35.226Z,43.40
2018-03-14T13:37:03.571Z,43.46
2018-03-14T13:39:31.899Z,43.68
2018-03-14T13:42:00.249Z,43.96
2018-03-14T13:44:28.582Z,44.21
2018-03-14T13:46:56.915Z,44.40
2018-03-14T13:49:25.237Z,44.69
2018-03-14T13:51:53.589Z,45.11
2018-03-14T13:54:21.905Z,45.40
2018-03-14T13:56:50.232Z,45.68
2018-03-14T13:59:18.590Z,45.98
2018-03-14T14:01:46.906Z,46.15
2018-03-14T14:04:15.233Z,45.81
2018-03-14T14:06:43.596Z,45.54
2018-03-14T14:09:11.932Z,45.15
2018-03-14T14:11:40.488Z,45.64
2018-03-14T14:14:08.842Z,44.97
2018-03-14T14:16:37.169Z,45.07
2018-03-14T14:19:05.041Z,45.27
2018-03-14T14:21:33.354Z,44.65
2018-03-14T14:24:01.684Z,44.55
2018-03-14T14:26:30.001Z,44.69
2018-03-14T14:28:58.370Z,44.39
2018-03-14T14:31:26.713Z,44.25
2018-03-14T14:33:55.045Z,44.17
2018-03-14T14:36:23.364Z,43.27
2018-03-14T14:38:51.729Z,43.50
2018-03-14T14:41:20.082Z,42.90
2018-03-14T14:43:48.402Z,42.75
2018-03-14T14:46:16.753Z,42.79
2018-03-14T14:48:45.112Z,43.19
2018-03-14T14:51:13.542Z,43.48
2018-03-14T14:53:41.922Z,43.63
2018-03-14T14:56:10.237Z,44.01
2018-03-14T14:58:38.569Z,43.62
2018-03-14T15:01:06.885Z,44.64
2018-03-14T15:03:35.297Z,44.76
2018-03-14T15:06:03.446Z,45.07
2018-03-14T15:08:31.895Z,45.14
2018-03-14T15:11:00.229Z,45.19
2018-03-14T15:13:28.554Z,44.24
2018-03-14T15:15:56.887Z,43.86
2018-03-14T15:18:25.229Z,44.06
2018-03-14T15:20:53.600Z,43.71
2018-03-14T15:23:22.061Z,43.58
2018-03-14T15:25:50.381Z,44.19
2018-03-14T15:28:18.754Z,44.39
2018-03-14T15:30:47.067Z,42.87
2018-03-14T15:33:15.406Z,43.41
2018-03-14T15:35:43.746Z,42.13
2018-03-14T15:38:12.086Z,43.18
2018-03-14T15:40:40.463Z,43.61
2018-03-14T15:43:08.961Z,44.63
2018-03-14T15:45:37.281Z,45.71
2018-03-14T15:48:05.635Z,46.18
2018-03-14T15:50:34.020Z,46.74
2018-03-14T15:53:02.344Z,47.36
2018-03-14T15:55:30.674Z,47.72
2018-03-14T15:57:59.021Z,48.01
2018-03-14T16:00:27.367Z,48.09
2018-03-14T16:02:55.690Z,48.20
2018-03-14T16:05:24.061Z,48.33
2018-03-14T16:07:52.389Z,48.21
2018-03-14T16:10:20.747Z,47.66
2018-03-14T16:12:49.121Z,47.82
2018-03-14T16:15:17.465Z,47.74
2018-03-14T16:17:45.779Z,47.79
2018-03-14T16:20:14.172Z,47.47
2018-03-14T16:22:42.526Z,47.50
2018-03-14T16:25:10.872Z,47.88
2018-03-14T16:27:39.306Z,47.93
2018-03-14T16:30:07.695Z,48.27
2018-03-14T16:32:36.028Z,48.33
2018-03-14T16:35:04.238Z,48.44
2018-03-14T16:37:32.671Z,48.51
2018-03-14T16:40:01.217Z,48.54
2018-03-14T16:42:29.665Z,48.73
2018-03-14T16:44:58.144Z,49.07
2018-03-14T16:47:26.520Z,49.35
2018-03-14T16:49:54.864Z,49.56
2018-03-14T16:52:23.200Z,49.81
2018-03-14T16:54:51.534Z,50.17
2018-03-14T16:57:19.854Z,50.21
2018-03-14T16:59:49.168Z,50.56
2018-03-14T17:02:17.524Z,50.73
